createdAt,value
2022-10-05T00:00:59.002Z,0.88
2022-10-05T00:03:33.433Z,0.90
2022-10-05T00:06:00.737Z,0.98
2022-10-05T00:08:32.719Z,0.82
2022-10-05T00:10:59.820Z,0.82
2022-10-05T00:13:31.104Z,0.60
2022-10-05T00:16:19.654Z,0.70
2022-10-05T00:18:52.025Z,0.80
2022-10-05T00:21:22.054Z,0.60
2022-10-05T00:23:49.528Z,0.57
2022-10-05T00:26:27.660Z,1.02
2022-10-05T00:28:54.992Z,0.90
2022-10-05T00:31:29.375Z,0.73
2022-10-05T00:33:57.434Z,1.30
2022-10-05T00:36:26.103Z,1.00
2022-10-05T00:38:53.708Z,1.10
2022-10-05T00:41:32.733Z,0.90
2022-10-05T00:44:24.006Z,0.57
2022-10-05T00:47:00.396Z,1.35
2022-10-05T00:49:29.887Z,0.82
2022-10-05T00:52:22.036Z,1.10
2022-10-05T00:54:55.636Z,0.90
2022-10-05T00:57:54.521Z,1.05
2022-10-05T01:00:24.855Z,1.00
2022-10-05T01:02:57.281Z,0.52
2022-10-05T01:06:13.202Z,0.70
2022-10-05T01:08:48.486Z,0.65
2022-10-05T01:11:40.772Z,0.97
2022-10-05T01:14:16.386Z,0.50
2022-10-05T01:16:56.196Z,1.00
2022-10-05T01:19:41.874Z,1.00
2022-10-05T01:22:36.329Z,0.80
2022-10-05T01:25:20.905Z,0.95
2022-10-05T01:27:50.319Z,0.85
2022-10-05T01:30:26.337Z,0.90
2022-10-05T01:32:59.321Z,1.30
2022-10-05T01:35:49.316Z,0.50
2022-10-05T01:38:46.282Z,0.60
2022-10-05T01:41:28.332Z,0.75
2022-10-05T01:44:15.046Z,0.93
2022-10-05T01:46:54.892Z,0.70
2022-10-05T01:49:38.667Z,0.45
2022-10-05T01:52:17.568Z,0.50
2022-10-05T01:54:54.181Z,0.70
2022-10-05T01:57:35.850Z,0.75
2022-10-05T02:00:10.918Z,0.70
2022-10-05T02:02:47.641Z,0.50
2022-10-05T02:05:21.499Z,0.90
2022-10-05T02:07:58.706Z,1.05
2022-10-05T02:10:32.877Z,0.63
2022-10-05T02:13:09.359Z,0.43
2022-10-05T02:15:45.841Z,0.73
2022-10-05T02:18:21.670Z,0.80
2022-10-05T02:20:52.275Z,0.43
2022-10-05T02:23:23.167Z,0.52
2022-10-05T02:25:55.425Z,0.50
2022-10-05T02:28:31.527Z,0.47
2022-10-05T02:31:26.442Z,0.43
2022-10-05T02:34:39.775Z,0.80
2022-10-05T02:37:12.346Z,0.68
2022-10-05T02:39:41.809Z,0.77
2022-10-05T02:42:38.918Z,0.63
2022-10-05T02:45:18.049Z,0.90
2022-10-05T02:48:05.973Z,0.63
2022-10-05T02:50:47.684Z,1.00
2022-10-05T02:53:32.904Z,0.80
2022-10-05T02:56:17.843Z,1.67
2022-10-05T02:59:10.168Z,0.67
2022-10-05T03:01:36.951Z,0.60
2022-10-05T03:04:59.927Z,0.85
2022-10-05T03:07:33.505Z,0.70
2022-10-05T03:10:29.897Z,0.68
2022-10-05T03:13:24.026Z,0.73
2022-10-05T03:16:06.588Z,0.65
2022-10-05T03:18:39.045Z,0.97
2022-10-05T03:21:42.937Z,0.90
2022-10-05T03:24:46.642Z,0.60
2022-10-05T03:27:25.669Z,0.50
2022-10-05T03:30:01.316Z,0.40
2022-10-05T03:32:42.102Z,0.90
2022-10-05T03:35:35.511Z,0.70
2022-10-05T03:38:29.764Z,0.57
2022-10-05T03:41:12.569Z,1.08
2022-10-05T03:43:51.372Z,1.10
2022-10-05T03:46:30.241Z,1.07
2022-10-05T03:49:23.332Z,0.43
2022-10-05T03:52:04.029Z,0.73
2022-10-05T03:54:37.929Z,0.90
2022-10-05T03:57:21.412Z,0.77
2022-10-05T04:00:11.121Z,0.60
2022-10-05T04:02:43.922Z,0.50
2022-10-05T04:05:10.604Z,0.63
2022-10-05T04:07:49.172Z,0.75
2022-10-05T04:10:50.497Z,0.50
2022-10-05T04:14:02.475Z,0.47
2022-10-05T04:16:34.556Z,0.68
2022-10-05T04:19:24.197Z,0.75
2022-10-05T04:22:03.170Z,0.63
2022-10-05T04:24:38.822Z,0.45
2022-10-05T04:27:30.118Z,0.60
2022-10-05T04:30:17.367Z,0.70
2022-10-05T04:33:00.784Z,0.20
2022-10-05T04:35:47.997Z,0.83
2022-10-05T04:38:14.587Z,0.65
2022-10-05T04:40:48.321Z,0.80
2022-10-05T04:43:46.624Z,0.73
2022-10-05T04:46:19.108Z,1.00
2022-10-05T04:49:00.733Z,0.82
2022-10-05T04:52:06.461Z,0.45
2022-10-05T04:55:02.480Z,0.60
2022-10-05T04:57:49.939Z,0.70
2022-10-05T05:00:26.093Z,1.10
2022-10-05T05:02:58.560Z,0.30
2022-10-05T05:06:15.530Z,0.40
2022-10-05T05:08:53.697Z,0.63
2022-10-05T05:11:44.091Z,0.52
2022-10-05T05:14:29.290Z,0.80
2022-10-05T05:17:27.881Z,0.68
2022-10-05T05:20:28.000Z,0.52
2022-10-05T05:23:37.752Z,0.60
2022-10-05T05:26:44.884Z,0.50
2022-10-05T05:29:19.853Z,0.52
2022-10-05T05:31:51.497Z,0.60
2022-10-05T05:34:46.271Z,0.38
2022-10-05T05:37:28.818Z,0.60
2022-10-05T05:40:22.621Z,0.70
2022-10-05T05:43:04.328Z,1.10
2022-10-05T05:45:41.986Z,0.75
2022-10-05T05:48:23.642Z,0.80
2022-10-05T05:51:08.280Z,1.13
2022-10-05T05:53:40.679Z,0.68
2022-10-05T05:56:16.556Z,0.80
2022-10-05T05:58:52.260Z,0.98
2022-10-05T06:01:32.887Z,0.82
2022-10-05T06:04:28.984Z,0.60
2022-10-05T06:06:57.933Z,0.80
2022-10-05T06:09:33.501Z,0.70
2022-10-05T06:12:12.529Z,0.60
2022-10-05T06:14:51.021Z,0.47
2022-10-05T06:17:32.364Z,0.88
2022-10-05T06:20:05.713Z,1.00
2022-10-05T06:22:42.947Z,0.70
2022-10-05T06:25:12.337Z,0.80
2022-10-05T06:28:10.183Z,0.47
2022-10-05T06:30:51.830Z,0.63
2022-10-05T06:33:50.907Z,0.80
2022-10-05T06:36:47.509Z,1.00
2022-10-05T06:39:37.091Z,1.13
2022-10-05T06:42:22.006Z,0.88
2022-10-05T06:45:16.613Z,0.70
2022-10-05T06:48:04.934Z,0.93
2022-10-05T06:51:23.271Z,0.90
2022-10-05T06:54:07.803Z,1.27
2022-10-05T06:56:37.432Z,0.95
2022-10-05T06:59:21.888Z,0.50
2022-10-05T07:02:22.711Z,0.80
2022-10-05T07:05:01.069Z,0.95
2022-10-05T07:07:58.214Z,1.10
2022-10-05T07:11:13.251Z,0.90
2022-10-05T07:14:03.332Z,0.95
2022-10-05T07:16:57.102Z,1.00
2022-10-05T07:19:26.803Z,1.30
2022-10-05T07:22:24.059Z,0.80
2022-10-05T07:24:58.081Z,1.00
2022-10-05T07:28:05.473Z,1.33
2022-10-05T07:30:47.879Z,1.10
2022-10-05T07:33:23.544Z,1.35
2022-10-05T07:36:18.694Z,1.30
2022-10-05T07:39:09.217Z,1.67
2022-10-05T07:41:46.080Z,1.52
2022-10-05T07:44:42.671Z,1.33
2022-10-05T07:47:30.216Z,1.45
2022-10-05T07:50:17.519Z,1.30
2022-10-05T07:52:54.323Z,1.55
2022-10-05T07:55:26.699Z,1.42
2022-10-05T07:58:21.493Z,1.63
2022-10-05T08:00:51.362Z,1.57
2022-10-05T08:03:28.683Z,1.30
2022-10-05T08:05:57.713Z,1.40
2022-10-05T08:08:57.618Z,1.58
2022-10-05T08:11:39.182Z,1.77
2022-10-05T08:14:16.985Z,1.70
2022-10-05T08:16:46.573Z,1.70
2022-10-05T08:19:39.845Z,1.92
2022-10-05T08:22:10.819Z,1.95
2022-10-05T08:24:54.455Z,1.55
2022-10-05T08:27:32.601Z,1.60
2022-10-05T08:30:06.436Z,2.00
2022-10-05T08:33:04.230Z,2.03
2022-10-05T08:35:44.208Z,2.17
2022-10-05T08:38:16.453Z,2.22
2022-10-05T08:40:48.961Z,2.00
2022-10-05T08:43:54.924Z,1.93
2022-10-05T08:46:59.829Z,2.17
2022-10-05T08:49:59.514Z,2.25
2022-10-05T08:52:57.226Z,1.88
2022-10-05T08:55:45.773Z,1.88
2022-10-05T08:58:47.426Z,2.10
2022-10-05T09:01:40.873Z,2.17
2022-10-05T09:04:22.207Z,2.50
2022-10-05T09:07:08.777Z,1.92
2022-10-05T09:10:01.876Z,2.40
2022-10-05T09:12:40.407Z,2.30
2022-10-05T09:15:52.167Z,2.35
2022-10-05T09:18:33.881Z,2.65
2022-10-05T09:21:23.048Z,2.88
2022-10-05T09:24:05.546Z,2.58
2022-10-05T09:26:54.599Z,2.80
2022-10-05T09:29:40.078Z,2.00
2022-10-05T09:32:40.749Z,2.05
2022-10-05T09:35:28.851Z,2.03
2022-10-05T09:38:26.369Z,1.70
2022-10-05T09:41:05.047Z,1.58
2022-10-05T09:43:59.075Z,1.70
2022-10-05T09:46:54.737Z,1.75
2022-10-05T09:49:46.180Z,1.83
2022-10-05T09:52:31.589Z,2.17
2022-10-05T09:55:28.871Z,1.85
2022-10-05T09:57:59.265Z,1.70
2022-10-05T10:01:22.108Z,2.30
2022-10-05T10:04:12.829Z,2.07
2022-10-05T10:06:39.442Z,2.17
2022-10-05T10:09:47.416Z,2.20
2022-10-05T10:12:28.823Z,2.10
2022-10-05T10:15:13.937Z,2.05
2022-10-05T10:17:42.903Z,1.67
2022-10-05T10:20:35.807Z,2.13
2022-10-05T10:23:08.053Z,1.75
2022-10-05T10:26:08.302Z,1.92
2022-10-05T10:28:53.969Z,2.13
2022-10-05T10:31:52.900Z,1.40
2022-10-05T10:34:43.780Z,1.55
2022-10-05T10:37:25.300Z,1.73
2022-10-05T10:40:03.466Z,1.13
2022-10-05T10:43:12.484Z,1.45
2022-10-05T10:45:57.867Z,1.40
2022-10-05T10:48:31.035Z,1.90
2022-10-05T10:51:25.705Z,1.25
2022-10-05T10:54:34.177Z,1.30
2022-10-05T10:57:11.871Z,1.63
2022-10-05T10:59:57.013Z,1.10
2022-10-05T11:02:37.965Z,1.17
2022-10-05T11:05:23.487Z,1.10
2022-10-05T11:07:59.173Z,1.10
2022-10-05T11:10:44.183Z,1.20
2022-10-05T11:13:35.332Z,1.40
